PWSweather.com
Personal Weather Stations
Station Observations
MARICOPA
Cobblestone Farms, Maricopa, AZ 85139

Cobblestone FarmsMaricopa, AZ 85139

Lat: 33.076, Lon: -112.0445

Elevation: 1148

Station Type: LaCrosse 2310/15

http://weather.azkiwis.net

Latest ConditionsUpdated 12:45:02 PM MST Sunday, Nov 19, 2017
Currently Today's Max Today's Min Today's Average
Temperature 77.2°F25.1°C 77.2°F25.1°C 47.1°F8.4°C 56.0°F13.3°C
Dew Point 29.0°F-1.7°C 29.9°F-1.2°C 13.0°F-10.6°C 20.0°F-6.7°C
Winds 2.3 mph NE3.7 kmh NE 5.8 mph ENE9.3 kmh ENE - 2.2 mph 3.5 kmh
Wind Gusts 6.9 mph11.1 kmh 9.2 mph14.8 kmh - -
Humidity 17% 31% 17% 25%
Pressure 29.98 in1015.2 mb 30.07 in1018.3 mb 29.98 in1015.2 mb -
Hour Temp Dew Point Humidity Winds Wind Gusts Pressure Precip Precip Rate Daily Precip Total
12:45 PM 77.2°F25.1°C 29.0°F-1.7°C 17% 2.3 mph NE3.7 kmh NE 6.9 mph11.1 kmh 29.98 in1015.2 mb - 0.00 in0.0 mm 0.00 in0.0 mm
12:30 PM 77.0°F25.0°C 28.8°F-1.8°C 17% 3.5 mph N5.6 kmh N 9.2 mph14.8 kmh 29.99 in1015.6 mb - 0.00 in0.0 mm 0.00 in0.0 mm
12:15 PM 76.6°F24.8°C 29.9°F-1.2°C 18% 4.6 mph NE7.4 kmh NE 6.9 mph11.1 kmh 29.99 in1015.6 mb - 0.00 in0.0 mm 0.00 in0.0 mm
12:00 PM 76.2°F24.6°C 29.6°F-1.3°C 18% 5.8 mph NE9.3 kmh NE 9.2 mph14.8 kmh 30.00 in1015.9 mb - 0.00 in0.0 mm 0.00 in0.0 mm
11:45 AM 75.4°F24.1°C 28.9°F-1.7°C 18% 5.8 mph ENE9.3 kmh ENE 9.2 mph14.8 kmh 30.02 in1016.6 mb - 0.00 in0.0 mm 0.00 in0.0 mm
11:30 AM 74.3°F23.5°C 28.0°F-2.2°C 18% 3.5 mph NNE5.6 kmh NNE 5.8 mph9.3 kmh 30.04 in1017.3 mb - 0.00 in0.0 mm 0.00 in0.0 mm
11:15 AM 73.0°F22.8°C 28.3°F-2.1°C 19% 3.5 mph NE5.6 kmh NE 5.8 mph9.3 kmh 30.05 in1017.6 mb - 0.00 in0.0 mm 0.00 in0.0 mm
11:00 AM 71.1°F21.7°C 28.0°F-2.2°C 20% 2.3 mph E3.7 kmh E 2.3 mph3.7 kmh 30.05 in1017.6 mb - 0.00 in0.0 mm 0.00 in0.0 mm
10:45 AM 68.8°F20.4°C 26.1°F-3.3°C 20% 3.5 mph NE5.6 kmh NE 5.8 mph9.3 kmh 30.05 in1017.6 mb - 0.00 in0.0 mm 0.00 in0.0 mm
10:30 AM 66.8°F19.3°C 25.6°F-3.6°C 21% 3.5 mph NE5.6 kmh NE 4.6 mph7.4 kmh 30.05 in1017.6 mb - 0.00 in0.0 mm 0.00 in0.0 mm
10:15 AM 64.9°F18.3°C 24.0°F-4.4°C 21% 2.3 mph NNE3.7 kmh NNE 3.5 mph5.6 kmh 30.06 in1017.9 mb - 0.00 in0.0 mm 0.00 in0.0 mm
10:00 AM 62.8°F17.1°C 23.3°F-4.8°C 22% 4.6 mph NNE7.4 kmh NNE 9.2 mph14.8 kmh 30.07 in1018.3 mb - 0.00 in0.0 mm 0.00 in0.0 mm
09:45 AM 60.1°F15.6°C 22.2°F-5.4°C 23% 3.5 mph NNE5.6 kmh NNE 4.6 mph7.4 kmh 30.06 in1017.9 mb - 0.00 in0.0 mm 0.00 in0.0 mm
09:30 AM 57.4°F14.1°C 21.8°F-5.7°C 25% 2.3 mph NNE3.7 kmh NNE 8.1 mph13.0 kmh 30.07 in1018.3 mb - 0.00 in0.0 mm 0.00 in0.0 mm
09:15 AM 54.3°F12.4°C 21.0°F-6.1°C 27% 4.6 mph NNE7.4 kmh NNE 6.9 mph11.1 kmh 30.07 in1018.3 mb - 0.00 in0.0 mm 0.00 in0.0 mm
09:00 AM 51.6°F10.9°C 21.1°F-6.1°C 30% 3.5 mph NNE5.6 kmh NNE 3.5 mph5.6 kmh 30.07 in1018.3 mb - 0.00 in0.0 mm 0.00 in0.0 mm
08:45 AM 49.2°F9.6°C 19.8°F-6.8°C 31% 3.5 mph NNE5.6 kmh NNE 4.6 mph7.4 kmh 30.06 in1017.9 mb - 0.00 in0.0 mm 0.00 in0.0 mm
08:30 AM 47.7°F8.7°C 17.7°F-7.9°C 30% Calm Calm 1.2 mph1.9 kmh 30.06 in1017.9 mb - 0.00 in0.0 mm 0.00 in0.0 mm
08:15 AM 47.1°F8.4°C 16.4°F-8.7°C 29% Calm Calm -- 30.05 in1017.6 mb - 0.00 in0.0 mm 0.00 in0.0 mm
08:00 AM 47.1°F8.4°C 15.6°F-9.1°C 28% Calm Calm -- 30.05 in1017.6 mb - 0.00 in0.0 mm 0.00 in0.0 mm
07:45 AM 47.1°F8.4°C 13.9°F-10.1°C 26% Calm Calm -- 30.04 in1017.3 mb - 0.00 in0.0 mm 0.00 in0.0 mm
07:30 AM 47.1°F8.4°C 13.0°F-10.6°C 25% Calm Calm -- 30.04 in1017.3 mb - 0.00 in0.0 mm 0.00 in0.0 mm
07:15 AM 47.6°F8.7°C 13.4°F-10.3°C 25% Calm Calm 1.2 mph1.9 kmh 30.04 in1017.3 mb - 0.00 in0.0 mm 0.00 in0.0 mm
07:00 AM 48.4°F9.1°C 13.2°F-10.4°C 24% Calm Calm -- 30.03 in1016.9 mb - 0.00 in0.0 mm 0.00 in0.0 mm
06:45 AM 49.3°F9.6°C 13.0°F-10.6°C 23% Calm Calm 1.2 mph1.9 kmh 30.02 in1016.6 mb - 0.00 in0.0 mm 0.00 in0.0 mm
06:30 AM 50.5°F10.3°C 14.1°F-9.9°C 23% Calm Calm -- 30.02 in1016.6 mb - 0.00 in0.0 mm 0.00 in0.0 mm
06:15 AM 51.6°F10.9°C 15.0°F-9.4°C 23% 1.2 mph NE1.9 kmh NE 3.5 mph5.6 kmh 30.02 in1016.6 mb - 0.00 in0.0 mm 0.00 in0.0 mm
06:00 AM 52.0°F11.1°C 15.3°F-9.3°C 23% 3.5 mph N5.6 kmh N 4.6 mph7.4 kmh 30.02 in1016.6 mb - 0.00 in0.0 mm 0.00 in0.0 mm
05:45 AM 51.6°F10.9°C 15.0°F-9.4°C 23% 3.5 mph NNE5.6 kmh NNE 6.9 mph11.1 kmh 30.02 in1016.6 mb - 0.00 in0.0 mm 0.00 in0.0 mm
05:30 AM 51.1°F10.6°C 15.5°F-9.2°C 24% 1.2 mph NNE1.9 kmh NNE 5.8 mph9.3 kmh 30.01 in1016.3 mb - 0.00 in0.0 mm 0.00 in0.0 mm
05:15 AM 50.5°F10.3°C 15.0°F-9.4°C 24% 1.2 mph NNE1.9 kmh NNE 1.2 mph1.9 kmh 30.01 in1016.3 mb - 0.00 in0.0 mm 0.00 in0.0 mm
05:00 AM 50.7°F10.4°C 15.2°F-9.3°C 24% 1.2 mph NNE1.9 kmh NNE 4.6 mph7.4 kmh 30.02 in1016.6 mb - 0.00 in0.0 mm 0.00 in0.0 mm
04:45 AM 51.4°F10.8°C 14.8°F-9.6°C 23% 1.2 mph NNE1.9 kmh NNE 3.5 mph5.6 kmh 30.01 in1016.3 mb - 0.00 in0.0 mm 0.00 in0.0 mm
04:30 AM 51.6°F10.9°C 15.0°F-9.4°C 23% 3.5 mph NNE5.6 kmh NNE 4.6 mph7.4 kmh 30.02 in1016.6 mb - 0.00 in0.0 mm 0.00 in0.0 mm
04:15 AM 51.8°F11.0°C 16.1°F-8.8°C 24% 4.6 mph N7.4 kmh N 6.9 mph11.1 kmh 30.01 in1016.3 mb - 0.00 in0.0 mm 0.00 in0.0 mm
04:00 AM 51.8°F11.0°C 16.1°F-8.8°C 24% 4.6 mph 7.4 kmh 8.1 mph13.0 kmh 30.01 in1016.3 mb - 0.00 in0.0 mm 0.00 in0.0 mm
03:45 AM 52.0°F11.1°C 17.2°F-8.2°C 25% 1.2 mph 1.9 kmh 1.2 mph1.9 kmh 30.01 in1016.3 mb - 0.00 in0.0 mm 0.00 in0.0 mm
03:30 AM 51.6°F10.9°C 17.8°F-7.9°C 26% 3.5 mph NNE5.6 kmh NNE 4.6 mph7.4 kmh 30.02 in1016.6 mb - 0.00 in0.0 mm 0.00 in0.0 mm
03:15 AM 52.0°F11.1°C 18.1°F-7.7°C 26% 3.5 mph N5.6 kmh N 5.8 mph9.3 kmh 30.02 in1016.6 mb - 0.00 in0.0 mm 0.00 in0.0 mm
03:00 AM 51.6°F10.9°C 18.7°F-7.4°C 27% 4.6 mph NNE7.4 kmh NNE 5.8 mph9.3 kmh 30.02 in1016.6 mb - 0.00 in0.0 mm 0.00 in0.0 mm
02:45 AM 51.6°F10.9°C 18.7°F-7.4°C 27% 2.3 mph NNE3.7 kmh NNE 5.8 mph9.3 kmh 30.02 in1016.6 mb - 0.00 in0.0 mm 0.00 in0.0 mm
02:30 AM 52.2°F11.2°C 20.0°F-6.7°C 28% 1.2 mph NNE1.9 kmh NNE 3.5 mph5.6 kmh 30.03 in1016.9 mb - 0.00 in0.0 mm 0.00 in0.0 mm
02:15 AM 52.2°F11.2°C 20.0°F-6.7°C 28% 2.3 mph NNE3.7 kmh NNE 6.9 mph11.1 kmh 30.03 in1016.9 mb - 0.00 in0.0 mm 0.00 in0.0 mm
02:00 AM 51.6°F10.9°C 20.4°F-6.4°C 29% 3.5 mph NNE5.6 kmh NNE 5.8 mph9.3 kmh 30.04 in1017.3 mb - 0.00 in0.0 mm 0.00 in0.0 mm
01:45 AM 51.4°F10.8°C 20.2°F-6.6°C 29% 1.2 mph NNE1.9 kmh NNE 3.5 mph5.6 kmh 30.05 in1017.6 mb - 0.00 in0.0 mm 0.00 in0.0 mm
01:30 AM 51.1°F10.6°C 19.9°F-6.7°C 29% 1.2 mph NNE1.9 kmh NNE 3.5 mph5.6 kmh 30.04 in1017.3 mb - 0.00 in0.0 mm 0.00 in0.0 mm
01:15 AM 51.1°F10.6°C 20.7°F-6.3°C 30% 1.2 mph NNW1.9 kmh NNW 4.6 mph7.4 kmh 30.04 in1017.3 mb - 0.00 in0.0 mm 0.00 in0.0 mm
01:00 AM 51.1°F10.6°C 20.7°F-6.3°C 30% Calm Calm -- 30.05 in1017.6 mb - 0.00 in0.0 mm 0.00 in0.0 mm
12:45 AM 51.6°F10.9°C 21.9°F-5.6°C 31% Calm Calm 1.2 mph1.9 kmh 30.05 in1017.6 mb - 0.00 in0.0 mm 0.00 in0.0 mm
12:30 AM 51.8°F11.0°C 22.1°F-5.5°C 31% Calm Calm 1.2 mph1.9 kmh 30.05 in1017.6 mb - 0.00 in0.0 mm 0.00 in0.0 mm
12:15 AM 52.0°F11.1°C 22.2°F-5.4°C 31% Calm Calm 1.2 mph1.9 kmh 30.06 in1017.9 mb - 0.00 in0.0 mm 0.00 in0.0 mm
12:00 AM 52.0°F11.1°C 22.2°F-5.4°C 31% Calm Calm 1.2 mph1.9 kmh 30.06 in1017.9 mb - 0.00 in0.0 mm 0.00 in0.0 mm